sensor_id;sensor_type;location;lat;lon;timestamp;P1;durP1;ratioP1;P2;durP2;ratioP2
12878;SDS011;20617;49.476;10.986;2023-03-21T00:01:21;3.45;;;3.05;;
12878;SDS011;20617;49.476;10.986;2023-03-21T00:03:26;6.82;;;3.63;;
12878;SDS011;20617;49.476;10.986;2023-03-21T00:05:33;5.97;;;3.58;;
12878;SDS011;20617;49.476;10.986;2023-03-21T00:07:42;5.45;;;3.25;;
12878;SDS011;20617;49.476;10.986;2023-03-21T00:09:48;4.35;;;3.20;;
12878;SDS011;20617;49.476;10.986;2023-03-21T00:11:58;5.13;;;3.70;;
12878;SDS011;20617;49.476;10.986;2023-03-21T00:14:08;4.93;;;3.60;;
12878;SDS011;20617;49.476;10.986;2023-03-21T00:16:16;6.75;;;3.90;;
12878;SDS011;20617;49.476;10.986;2023-03-21T00:18:30;6.00;;;3.63;;
12878;SDS011;20617;49.476;10.986;2023-03-21T00:20:37;4.45;;;3.05;;
12878;SDS011;20617;49.476;10.986;2023-03-21T00:24:47;4.28;;;2.95;;
12878;SDS011;20617;49.476;10.986;2023-03-21T00:26:52;5.90;;;2.90;;
12878;SDS011;20617;49.476;10.986;2023-03-21T00:29:13;3.35;;;2.60;;
12878;SDS011;20617;49.476;10.986;2023-03-21T00:31:20;4.90;;;2.42;;
12878;SDS011;20617;49.476;10.986;2023-03-21T00:33:25;5.00;;;2.92;;
12878;SDS011;20617;49.476;10.986;2023-03-21T00:35:30;4.00;;;2.83;;
12878;SDS011;20617;49.476;10.986;2023-03-21T00:37:55;5.40;;;2.78;;
12878;SDS011;20617;49.476;10.986;2023-03-21T00:40:00;4.43;;;2.60;;
12878;SDS011;20617;49.476;10.986;2023-03-21T00:42:11;4.55;;;3.03;;
12878;SDS011;20617;49.476;10.986;2023-03-21T00:44:18;7.70;;;3.25;;
12878;SDS011;20617;49.476;10.986;2023-03-21T00:46:28;8.27;;;3.53;;
12878;SDS011;20617;49.476;10.986;2023-03-21T00:48:47;6.65;;;3.70;;
12878;SDS011;20617;49.476;10.986;2023-03-21T00:50:52;4.82;;;2.47;;
12878;SDS011;20617;49.476;10.986;2023-03-21T00:52:59;4.85;;;3.20;;
12878;SDS011;20617;49.476;10.986;2023-03-21T00:55:05;5.28;;;2.67;;
12878;SDS011;20617;49.476;10.986;2023-03-21T00:57:11;4.72;;;2.88;;
12878;SDS011;20617;49.476;10.986;2023-03-21T00:59:19;5.22;;;2.97;;
12878;SDS011;20617;49.476;10.986;2023-03-21T01:01:24;6.40;;;3.00;;
12878;SDS011;20617;49.476;10.986;2023-03-21T01:03:32;5.93;;;3.10;;
12878;SDS011;20617;49.476;10.986;2023-03-21T01:05:46;6.03;;;3.17;;
12878;SDS011;20617;49.476;10.986;2023-03-21T01:08:08;6.32;;;3.20;;
12878;SDS011;20617;49.476;10.986;2023-03-21T01:10:28;4.47;;;2.88;;
12878;SDS011;20617;49.476;10.986;2023-03-21T01:12:33;5.78;;;3.60;;
12878;SDS011;20617;49.476;10.986;2023-03-21T01:14:40;5.82;;;3.22;;
12878;SDS011;20617;49.476;10.986;2023-03-21T01:16:45;4.28;;;3.05;;
12878;SDS011;20617;49.476;10.986;2023-03-21T01:18:51;3.53;;;2.58;;
12878;SDS011;20617;49.476;10.986;2023-03-21T01:20:57;4.32;;;2.55;;
12878;SDS011;20617;49.476;10.986;2023-03-21T01:23:03;4.15;;;2.75;;
12878;SDS011;20617;49.476;10.986;2023-03-21T01:25:08;5.15;;;2.50;;
12878;SDS011;20617;49.476;10.986;2023-03-21T01:29:28;4.75;;;3.08;;
12878;SDS011;20617;49.476;10.986;2023-03-21T01:31:35;4.10;;;2.63;;
12878;SDS011;20617;49.476;10.986;2023-03-21T01:33:41;3.65;;;2.58;;
12878;SDS011;20617;49.476;10.986;2023-03-21T01:35:46;4.13;;;2.40;;
12878;SDS011;20617;49.476;10.986;2023-03-21T01:38:06;2.63;;;2.00;;
12878;SDS011;20617;49.476;10.986;2023-03-21T01:40:16;5.35;;;2.55;;
12878;SDS011;20617;49.476;10.986;2023-03-21T01:42:33;3.15;;;2.42;;
12878;SDS011;20617;49.476;10.986;2023-03-21T01:44:50;4.30;;;2.65;;
12878;SDS011;20617;49.476;10.986;2023-03-21T01:47:01;5.00;;;2.75;;
12878;SDS011;20617;49.476;10.986;2023-03-21T01:49:22;3.08;;;2.38;;
12878;SDS011;20617;49.476;10.986;2023-03-21T01:51:45;3.03;;;2.33;;
12878;SDS011;20617;49.476;10.986;2023-03-21T01:53:55;3.30;;;2.05;;
12878;SDS011;20617;49.476;10.986;2023-03-21T01:56:00;3.97;;;2.40;;
12878;SDS011;20617;49.476;10.986;2023-03-21T01:58:29;4.55;;;2.45;;
12878;SDS011;20617;49.476;10.986;2023-03-21T02:00:55;5.45;;;2.40;;
12878;SDS011;20617;49.476;10.986;2023-03-21T02:03:12;4.78;;;2.20;;
12878;SDS011;20617;49.476;10.986;2023-03-21T02:05:54;5.20;;;2.25;;
12878;SDS011;20617;49.476;10.986;2023-03-21T02:08:08;3.60;;;1.83;;
12878;SDS011;20617;49.476;10.986;2023-03-21T02:10:15;4.13;;;2.60;;
12878;SDS011;20617;49.476;10.986;2023-03-21T02:12:24;4.43;;;2.60;;
12878;SDS011;20617;49.476;10.986;2023-03-21T02:14:30;3.15;;;2.30;;
12878;SDS011;20617;49.476;10.986;2023-03-21T02:16:49;2.92;;;2.10;;
12878;SDS011;20617;49.476;10.986;2023-03-21T02:19:11;3.70;;;2.40;;
12878;SDS011;20617;49.476;10.986;2023-03-21T02:21:52;3.50;;;2.33;;
12878;SDS011;20617;49.476;10.986;2023-03-21T02:27:14;5.78;;;2.97;;
12878;SDS011;20617;49.476;10.986;2023-03-21T02:29:29;6.13;;;3.35;;
12878;SDS011;20617;49.476;10.986;2023-03-21T02:31:55;6.40;;;3.80;;
12878;SDS011;20617;49.476;10.986;2023-03-21T02:34:40;5.38;;;3.42;;
12878;SDS011;20617;49.476;10.986;2023-03-21T02:37:10;4.68;;;2.60;;
12878;SDS011;20617;49.476;10.986;2023-03-21T02:39:36;4.00;;;2.60;;
12878;SDS011;20617;49.476;10.986;2023-03-21T02:41:53;5.68;;;2.85;;
12878;SDS011;20617;49.476;10.986;2023-03-21T02:44:13;3.28;;;2.55;;
12878;SDS011;20617;49.476;10.986;2023-03-21T02:46:25;4.60;;;2.05;;
12878;SDS011;20617;49.476;10.986;2023-03-21T02:48:48;3.67;;;2.40;;
12878;SDS011;20617;49.476;10.986;2023-03-21T02:50:58;3.55;;;2.50;;
12878;SDS011;20617;49.476;10.986;2023-03-21T02:53:08;2.88;;;1.95;;
12878;SDS011;20617;49.476;10.986;2023-03-21T02:55:18;3.17;;;2.15;;
12878;SDS011;20617;49.476;10.986;2023-03-21T02:57:32;4.95;;;2.53;;
12878;SDS011;20617;49.476;10.986;2023-03-21T02:59:45;4.90;;;2.40;;
12878;SDS011;20617;49.476;10.986;2023-03-21T03:02:05;3.15;;;2.20;;
12878;SDS011;20617;49.476;10.986;2023-03-21T03:04:17;5.20;;;2.50;;
12878;SDS011;20617;49.476;10.986;2023-03-21T03:06:26;3.50;;;2.38;;
12878;SDS011;20617;49.476;10.986;2023-03-21T03:08:41;4.05;;;2.38;;
12878;SDS011;20617;49.476;10.986;2023-03-21T03:11:07;5.10;;;2.50;;
12878;SDS011;20617;49.476;10.986;2023-03-21T03:13:25;3.33;;;2.22;;
12878;SDS011;20617;49.476;10.986;2023-03-21T03:15:40;6.10;;;2.45;;
12878;SDS011;20617;49.476;10.986;2023-03-21T03:17:53;3.22;;;2.40;;
12878;SDS011;20617;49.476;10.986;2023-03-21T03:20:20;3.92;;;2.15;;
12878;SDS011;20617;49.476;10.986;2023-03-21T03:22:33;6.75;;;2.33;;
12878;SDS011;20617;49.476;10.986;2023-03-21T03:24:50;3.78;;;2.75;;
12878;SDS011;20617;49.476;10.986;2023-03-21T03:27:14;3.10;;;2.38;;
12878;SDS011;20617;49.476;10.986;2023-03-21T03:29:23;5.60;;;2.30;;
12878;SDS011;20617;49.476;10.986;2023-03-21T03:31:32;4.60;;;2.75;;
12878;SDS011;20617;49.476;10.986;2023-03-21T03:33:41;4.47;;;2.33;;
12878;SDS011;20617;49.476;10.986;2023-03-21T03:35:51;3.50;;;2.40;;
12878;SDS011;20617;49.476;10.986;2023-03-21T03:38:10;3.42;;;2.28;;
12878;SDS011;20617;49.476;10.986;2023-03-21T03:40:20;4.82;;;2.50;;
12878;SDS011;20617;49.476;10.986;2023-03-21T03:42:39;4.55;;;2.60;;
12878;SDS011;20617;49.476;10.986;2023-03-21T03:44:56;6.30;;;3.08;;
12878;SDS011;20617;49.476;10.986;2023-03-21T03:47:03;4.70;;;2.42;;
12878;SDS011;20617;49.476;10.986;2023-03-21T03:49:27;3.45;;;2.65;;
12878;SDS011;20617;49.476;10.986;2023-03-21T03:51:38;4.57;;;2.60;;
12878;SDS011;20617;49.476;10.986;2023-03-21T03:54:05;3.72;;;2.70;;
12878;SDS011;20617;49.476;10.986;2023-03-21T03:56:18;4.10;;;2.45;;
12878;SDS011;20617;49.476;10.986;2023-03-21T03:58:24;3.47;;;2.30;;
12878;SDS011;20617;49.476;10.986;2023-03-21T04:00:45;4.45;;;2.65;;
12878;SDS011;20617;49.476;10.986;2023-03-21T04:04:59;4.72;;;2.97;;
12878;SDS011;20617;49.476;10.986;2023-03-21T04:07:04;4.05;;;2.40;;
12878;SDS011;20617;49.476;10.986;2023-03-21T04:09:12;3.30;;;2.30;;
12878;SDS011;20617;49.476;10.986;2023-03-21T04:11:28;3.33;;;2.45;;
12878;SDS011;20617;49.476;10.986;2023-03-21T04:13:34;5.38;;;2.85;;
12878;SDS011;20617;49.476;10.986;2023-03-21T04:15:42;5.55;;;2.95;;
12878;SDS011;20617;49.476;10.986;2023-03-21T04:17:50;3.47;;;2.67;;
12878;SDS011;20617;49.476;10.986;2023-03-21T04:19:55;4.60;;;2.75;;
12878;SDS011;20617;49.476;10.986;2023-03-21T04:22:13;5.10;;;3.05;;
12878;SDS011;20617;49.476;10.986;2023-03-21T04:24:20;5.65;;;2.80;;
12878;SDS011;20617;49.476;10.986;2023-03-21T04:26:28;4.97;;;3.03;;
12878;SDS011;20617;49.476;10.986;2023-03-21T04:28:54;4.82;;;2.80;;
12878;SDS011;20617;49.476;10.986;2023-03-21T04:31:20;4.85;;;3.40;;
12878;SDS011;20617;49.476;10.986;2023-03-21T04:33:35;4.50;;;3.03;;
12878;SDS011;20617;49.476;10.986;2023-03-21T04:35:40;4.55;;;3.35;;
12878;SDS011;20617;49.476;10.986;2023-03-21T04:37:48;6.75;;;3.22;;
12878;SDS011;20617;49.476;10.986;2023-03-21T04:39:53;5.00;;;3.38;;
12878;SDS011;20617;49.476;10.986;2023-03-21T04:44:05;6.00;;;3.20;;
12878;SDS011;20617;49.476;10.986;2023-03-21T04:46:12;5.65;;;3.28;;
12878;SDS011;20617;49.476;10.986;2023-03-21T04:50:25;6.35;;;3.78;;
12878;SDS011;20617;49.476;10.986;2023-03-21T04:52:30;5.50;;;3.22;;
12878;SDS011;20617;49.476;10.986;2023-03-21T04:54:36;5.32;;;3.65;;
12878;SDS011;20617;49.476;10.986;2023-03-21T04:56:41;6.30;;;3.45;;
12878;SDS011;20617;49.476;10.986;2023-03-21T04:58:49;4.65;;;3.22;;
12878;SDS011;20617;49.476;10.986;2023-03-21T05:00:54;6.57;;;3.50;;
12878;SDS011;20617;49.476;10.986;2023-03-21T05:03:00;5.68;;;3.75;;
12878;SDS011;20617;49.476;10.986;2023-03-21T05:05:05;4.82;;;3.45;;
12878;SDS011;20617;49.476;10.986;2023-03-21T05:07:12;5.32;;;3.45;;
12878;SDS011;20617;49.476;10.986;2023-03-21T05:11:23;5.70;;;3.72;;
12878;SDS011;20617;49.476;10.986;2023-03-21T05:13:28;5.30;;;3.60;;
12878;SDS011;20617;49.476;10.986;2023-03-21T05:15:35;6.70;;;3.55;;
12878;SDS011;20617;49.476;10.986;2023-03-21T05:17:40;5.22;;;3.13;;
12878;SDS011;20617;49.476;10.986;2023-03-21T05:19:45;7.70;;;3.42;;
12878;SDS011;20617;49.476;10.986;2023-03-21T05:21:51;5.63;;;3.72;;
12878;SDS011;20617;49.476;10.986;2023-03-21T05:24:00;6.22;;;4.05;;
12878;SDS011;20617;49.476;10.986;2023-03-21T05:26:05;8.73;;;4.15;;
12878;SDS011;20617;49.476;10.986;2023-03-21T05:28:18;5.68;;;3.47;;
12878;SDS011;20617;49.476;10.986;2023-03-21T05:30:23;11.15;;;4.32;;
12878;SDS011;20617;49.476;10.986;2023-03-21T05:32:34;5.57;;;3.97;;
12878;SDS011;20617;49.476;10.986;2023-03-21T05:34:42;4.75;;;3.92;;
12878;SDS011;20617;49.476;10.986;2023-03-21T05:36:47;4.53;;;3.25;;
12878;SDS011;20617;49.476;10.986;2023-03-21T05:38:54;5.60;;;3.17;;
12878;SDS011;20617;49.476;10.986;2023-03-21T05:43:05;5.50;;;3.90;;
12878;SDS011;20617;49.476;10.986;2023-03-21T05:45:10;6.20;;;4.10;;
12878;SDS011;20617;49.476;10.986;2023-03-21T05:49:24;5.47;;;4.00;;
12878;SDS011;20617;49.476;10.986;2023-03-21T05:51:32;5.78;;;3.70;;
12878;SDS011;20617;49.476;10.986;2023-03-21T05:53:37;6.50;;;4.22;;
12878;SDS011;20617;49.476;10.986;2023-03-21T05:55:42;8.23;;;4.85;;
12878;SDS011;20617;49.476;10.986;2023-03-21T05:58:02;6.50;;;4.00;;
12878;SDS011;20617;49.476;10.986;2023-03-21T06:02:16;6.82;;;4.50;;
12878;SDS011;20617;49.476;10.986;2023-03-21T06:04:25;6.25;;;4.10;;
12878;SDS011;20617;49.476;10.986;2023-03-21T06:06:30;7.28;;;4.20;;
12878;SDS011;20617;49.476;10.986;2023-03-21T06:08:35;5.30;;;3.97;;
12878;SDS011;20617;49.476;10.986;2023-03-21T06:10:40;7.28;;;4.30;;
12878;SDS011;20617;49.476;10.986;2023-03-21T06:12:46;4.47;;;3.40;;
12878;SDS011;20617;49.476;10.986;2023-03-21T06:15:03;4.97;;;3.55;;
12878;SDS011;20617;49.476;10.986;2023-03-21T06:17:44;5.75;;;4.00;;
12878;SDS011;20617;49.476;10.986;2023-03-21T06:19:52;5.75;;;3.67;;
12878;SDS011;20617;49.476;10.986;2023-03-21T06:22:06;6.40;;;3.45;;
12878;SDS011;20617;49.476;10.986;2023-03-21T06:24:13;6.25;;;3.40;;
12878;SDS011;20617;49.476;10.986;2023-03-21T06:26:21;6.70;;;3.35;;
12878;SDS011;20617;49.476;10.986;2023-03-21T06:28:27;6.25;;;3.17;;
12878;SDS011;20617;49.476;10.986;2023-03-21T06:30:32;8.32;;;3.30;;
12878;SDS011;20617;49.476;10.986;2023-03-21T06:32:45;7.70;;;3.53;;
12878;SDS011;20617;49.476;10.986;2023-03-21T06:34:54;5.65;;;3.47;;
12878;SDS011;20617;49.476;10.986;2023-03-21T06:36:58;8.65;;;3.55;;
12878;SDS011;20617;49.476;10.986;2023-03-21T06:39:06;7.03;;;3.58;;
12878;SDS011;20617;49.476;10.986;2023-03-21T06:41:14;6.03;;;3.58;;
12878;SDS011;20617;49.476;10.986;2023-03-21T06:45:36;4.10;;;3.00;;
12878;SDS011;20617;49.476;10.986;2023-03-21T06:47:44;5.63;;;3.30;;
12878;SDS011;20617;49.476;10.986;2023-03-21T06:50:03;6.15;;;3.58;;
12878;SDS011;20617;49.476;10.986;2023-03-21T06:52:14;4.60;;;3.42;;
12878;SDS011;20617;49.476;10.986;2023-03-21T06:54:19;7.93;;;3.47;;
12878;SDS011;20617;49.476;10.986;2023-03-21T06:56:30;5.72;;;3.35;;
12878;SDS011;20617;49.476;10.986;2023-03-21T06:58:37;9.27;;;3.75;;
12878;SDS011;20617;49.476;10.986;2023-03-21T07:00:49;5.50;;;3.30;;
12878;SDS011;20617;49.476;10.986;2023-03-21T07:02:54;5.88;;;3.40;;
12878;SDS011;20617;49.476;10.986;2023-03-21T07:04:59;5.32;;;3.70;;
12878;SDS011;20617;49.476;10.986;2023-03-21T07:09:12;8.60;;;3.25;;
12878;SDS011;20617;49.476;10.986;2023-03-21T07:11:18;9.18;;;3.83;;
12878;SDS011;20617;49.476;10.986;2023-03-21T07:13:23;7.72;;;2.97;;
12878;SDS011;20617;49.476;10.986;2023-03-21T07:15:36;5.95;;;3.50;;
12878;SDS011;20617;49.476;10.986;2023-03-21T07:17:42;7.50;;;4.07;;
12878;SDS011;20617;49.476;10.986;2023-03-21T07:19:47;5.38;;;3.63;;
12878;SDS011;20617;49.476;10.986;2023-03-21T07:21:53;6.53;;;3.67;;
12878;SDS011;20617;49.476;10.986;2023-03-21T07:24:00;5.90;;;3.72;;
12878;SDS011;20617;49.476;10.986;2023-03-21T07:26:05;4.63;;;3.17;;
12878;SDS011;20617;49.476;10.986;2023-03-21T07:28:11;7.03;;;3.92;;
12878;SDS011;20617;49.476;10.986;2023-03-21T07:30:16;5.68;;;3.42;;
12878;SDS011;20617;49.476;10.986;2023-03-21T07:32:21;6.00;;;3.75;;
12878;SDS011;20617;49.476;10.986;2023-03-21T07:34:30;5.40;;;3.55;;
12878;SDS011;20617;49.476;10.986;2023-03-21T07:36:37;5.50;;;3.85;;
12878;SDS011;20617;49.476;10.986;2023-03-21T07:38:42;10.15;;;3.70;;
12878;SDS011;20617;49.476;10.986;2023-03-21T07:40:57;4.82;;;3.78;;
12878;SDS011;20617;49.476;10.986;2023-03-21T07:43:06;9.13;;;3.78;;
12878;SDS011;20617;49.476;10.986;2023-03-21T07:45:15;8.02;;;4.15;;
12878;SDS011;20617;49.476;10.986;2023-03-21T07:47:22;7.10;;;3.47;;
12878;SDS011;20617;49.476;10.986;2023-03-21T07:49:27;5.72;;;3.90;;
12878;SDS011;20617;49.476;10.986;2023-03-21T07:51:32;7.28;;;4.07;;
12878;SDS011;20617;49.476;10.986;2023-03-21T07:53:38;6.22;;;3.83;;
12878;SDS011;20617;49.476;10.986;2023-03-21T07:55:46;8.23;;;3.65;;
12878;SDS011;20617;49.476;10.986;2023-03-21T07:57:55;8.77;;;3.45;;
12878;SDS011;20617;49.476;10.986;2023-03-21T08:00:00;8.05;;;3.60;;
12878;SDS011;20617;49.476;10.986;2023-03-21T08:02:13;7.82;;;3.40;;
12878;SDS011;20617;49.476;10.986;2023-03-21T08:04:19;5.57;;;3.35;;
12878;SDS011;20617;49.476;10.986;2023-03-21T08:06:26;7.63;;;4.38;;
12878;SDS011;20617;49.476;10.986;2023-03-21T08:08:33;8.73;;;3.80;;
12878;SDS011;20617;49.476;10.986;2023-03-21T08:10:38;4.90;;;3.38;;
12878;SDS011;20617;49.476;10.986;2023-03-21T08:12:42;5.88;;;3.80;;
12878;SDS011;20617;49.476;10.986;2023-03-21T08:14:50;6.25;;;3.00;;
12878;SDS011;20617;49.476;10.986;2023-03-21T08:16:55;9.25;;;3.72;;
12878;SDS011;20617;49.476;10.986;2023-03-21T08:19:00;13.23;;;4.25;;
12878;SDS011;20617;49.476;10.986;2023-03-21T08:21:05;9.35;;;3.60;;
12878;SDS011;20617;49.476;10.986;2023-03-21T08:23:11;7.82;;;4.40;;
12878;SDS011;20617;49.476;10.986;2023-03-21T08:25:17;7.40;;;3.83;;
12878;SDS011;20617;49.476;10.986;2023-03-21T08:27:26;6.15;;;3.50;;
12878;SDS011;20617;49.476;10.986;2023-03-21T08:29:31;7.82;;;3.53;;
12878;SDS011;20617;49.476;10.986;2023-03-21T08:31:43;8.35;;;3.40;;
12878;SDS011;20617;49.476;10.986;2023-03-21T08:33:48;6.85;;;3.75;;
12878;SDS011;20617;49.476;10.986;2023-03-21T08:35:57;7.70;;;3.17;;
12878;SDS011;20617;49.476;10.986;2023-03-21T08:38:03;6.93;;;3.40;;
12878;SDS011;20617;49.476;10.986;2023-03-21T08:40:09;5.95;;;3.22;;
12878;SDS011;20617;49.476;10.986;2023-03-21T08:42:16;10.32;;;3.70;;
12878;SDS011;20617;49.476;10.986;2023-03-21T08:44:22;4.53;;;2.72;;
12878;SDS011;20617;49.476;10.986;2023-03-21T08:48:35;5.80;;;2.63;;
12878;SDS011;20617;49.476;10.986;2023-03-21T08:50:40;7.72;;;2.88;;
12878;SDS011;20617;49.476;10.986;2023-03-21T08:52:45;6.93;;;3.25;;
12878;SDS011;20617;49.476;10.986;2023-03-21T08:54:51;5.97;;;3.33;;
12878;SDS011;20617;49.476;10.986;2023-03-21T08:56:56;8.27;;;3.90;;
12878;SDS011;20617;49.476;10.986;2023-03-21T08:59:01;7.75;;;3.47;;
12878;SDS011;20617;49.476;10.986;2023-03-21T09:01:06;6.20;;;3.45;;
12878;SDS011;20617;49.476;10.986;2023-03-21T09:03:16;6.25;;;3.92;;
12878;SDS011;20617;49.476;10.986;2023-03-21T09:05:24;5.05;;;3.30;;
12878;SDS011;20617;49.476;10.986;2023-03-21T09:07:29;5.28;;;2.92;;
12878;SDS011;20617;49.476;10.986;2023-03-21T09:09:34;6.32;;;3.30;;
12878;SDS011;20617;49.476;10.986;2023-03-21T09:11:39;5.18;;;3.20;;
12878;SDS011;20617;49.476;10.986;2023-03-21T09:13:44;8.13;;;3.80;;
12878;SDS011;20617;49.476;10.986;2023-03-21T09:15:49;10.35;;;3.95;;
12878;SDS011;20617;49.476;10.986;2023-03-21T09:17:54;6.75;;;3.50;;
12878;SDS011;20617;49.476;10.986;2023-03-21T09:20:14;5.72;;;3.25;;
12878;SDS011;20617;49.476;10.986;2023-03-21T09:22:25;6.30;;;3.55;;
12878;SDS011;20617;49.476;10.986;2023-03-21T09:24:31;6.70;;;3.20;;
12878;SDS011;20617;49.476;10.986;2023-03-21T09:28:41;5.63;;;3.25;;
12878;SDS011;20617;49.476;10.986;2023-03-21T09:30:47;7.00;;;3.53;;
12878;SDS011;20617;49.476;10.986;2023-03-21T09:32:53;4.22;;;3.15;;
12878;SDS011;20617;49.476;10.986;2023-03-21T09:34:57;10.00;;;3.30;;
12878;SDS011;20617;49.476;10.986;2023-03-21T09:37:02;7.53;;;3.30;;
12878;SDS011;20617;49.476;10.986;2023-03-21T09:39:16;8.65;;;3.78;;
12878;SDS011;20617;49.476;10.986;2023-03-21T09:41:25;5.53;;;3.28;;
12878;SDS011;20617;49.476;10.986;2023-03-21T09:43:42;6.72;;;3.50;;
12878;SDS011;20617;49.476;10.986;2023-03-21T09:45:58;7.22;;;3.03;;
12878;SDS011;20617;49.476;10.986;2023-03-21T09:48:11;7.22;;;2.53;;
12878;SDS011;20617;49.476;10.986;2023-03-21T09:50:31;4.10;;;2.40;;
12878;SDS011;20617;49.476;10.986;2023-03-21T09:52:40;9.00;;;2.80;;
12878;SDS011;20617;49.476;10.986;2023-03-21T09:54:53;6.25;;;2.90;;
12878;SDS011;20617;49.476;10.986;2023-03-21T09:57:00;5.07;;;2.70;;
12878;SDS011;20617;49.476;10.986;2023-03-21T09:59:20;5.85;;;2.85;;
12878;SDS011;20617;49.476;10.986;2023-03-21T10:01:33;9.10;;;3.35;;
12878;SDS011;20617;49.476;10.986;2023-03-21T10:03:42;8.73;;;3.17;;
12878;SDS011;20617;49.476;10.986;2023-03-21T10:05:48;7.75;;;3.15;;
12878;SDS011;20617;49.476;10.986;2023-03-21T10:07:58;6.47;;;3.13;;
12878;SDS011;20617;49.476;10.986;2023-03-21T10:10:13;7.35;;;3.53;;
12878;SDS011;20617;49.476;10.986;2023-03-21T10:12:21;9.30;;;3.58;;
12878;SDS011;20617;49.476;10.986;2023-03-21T10:14:31;6.15;;;2.63;;
12878;SDS011;20617;49.476;10.986;2023-03-21T10:16:41;8.70;;;3.03;;
12878;SDS011;20617;49.476;10.986;2023-03-21T10:18:48;4.22;;;2.95;;
12878;SDS011;20617;49.476;10.986;2023-03-21T10:20:54;7.60;;;2.83;;
12878;SDS011;20617;49.476;10.986;2023-03-21T10:23:00;4.53;;;2.50;;
12878;SDS011;20617;49.476;10.986;2023-03-21T10:25:10;7.78;;;3.33;;
12878;SDS011;20617;49.476;10.986;2023-03-21T10:27:21;6.25;;;3.10;;
12878;SDS011;20617;49.476;10.986;2023-03-21T10:29:27;5.68;;;3.03;;
12878;SDS011;20617;49.476;10.986;2023-03-21T10:31:38;6.50;;;3.53;;
12878;SDS011;20617;49.476;10.986;2023-03-21T10:33:45;7.03;;;3.55;;
12878;SDS011;20617;49.476;10.986;2023-03-21T10:35:54;6.18;;;3.05;;
12878;SDS011;20617;49.476;10.986;2023-03-21T10:38:05;7.45;;;3.25;;
12878;SDS011;20617;49.476;10.986;2023-03-21T10:40:18;5.75;;;3.25;;
12878;SDS011;20617;49.476;10.986;2023-03-21T10:42:23;4.65;;;2.83;;
12878;SDS011;20617;49.476;10.986;2023-03-21T10:44:30;6.70;;;3.60;;
12878;SDS011;20617;49.476;10.986;2023-03-21T10:46:36;4.72;;;3.17;;
12878;SDS011;20617;49.476;10.986;2023-03-21T10:48:42;5.63;;;3.42;;
12878;SDS011;20617;49.476;10.986;2023-03-21T10:50:50;5.60;;;3.05;;
12878;SDS011;20617;49.476;10.986;2023-03-21T10:52:58;4.90;;;2.83;;
12878;SDS011;20617;49.476;10.986;2023-03-21T10:55:06;3.42;;;2.42;;
12878;SDS011;20617;49.476;10.986;2023-03-21T10:57:24;5.47;;;2.90;;
12878;SDS011;20617;49.476;10.986;2023-03-21T10:59:34;5.05;;;3.10;;
12878;SDS011;20617;49.476;10.986;2023-03-21T11:01:44;7.60;;;3.45;;
12878;SDS011;20617;49.476;10.986;2023-03-21T11:03:54;6.32;;;3.88;;
12878;SDS011;20617;49.476;10.986;2023-03-21T11:06:02;5.22;;;3.53;;
12878;SDS011;20617;49.476;10.986;2023-03-21T11:08:11;7.78;;;3.90;;
12878;SDS011;20617;49.476;10.986;2023-03-21T11:10:25;5.03;;;3.20;;
12878;SDS011;20617;49.476;10.986;2023-03-21T11:12:36;4.43;;;3.25;;
12878;SDS011;20617;49.476;10.986;2023-03-21T11:14:42;4.55;;;3.30;;
12878;SDS011;20617;49.476;10.986;2023-03-21T11:16:49;8.50;;;4.40;;
12878;SDS011;20617;49.476;10.986;2023-03-21T11:18:56;5.15;;;3.40;;
12878;SDS011;20617;49.476;10.986;2023-03-21T11:21:04;5.10;;;3.58;;
12878;SDS011;20617;49.476;10.986;2023-03-21T11:23:11;5.30;;;3.05;;
12878;SDS011;20617;49.476;10.986;2023-03-21T11:25:19;5.75;;;3.38;;
12878;SDS011;20617;49.476;10.986;2023-03-21T11:27:26;7.00;;;3.97;;
12878;SDS011;20617;49.476;10.986;2023-03-21T11:29:35;6.38;;;4.28;;
12878;SDS011;20617;49.476;10.986;2023-03-21T11:31:43;7.55;;;3.85;;
12878;SDS011;20617;49.476;10.986;2023-03-21T11:33:49;4.93;;;3.25;;
12878;SDS011;20617;49.476;10.986;2023-03-21T11:36:01;5.50;;;3.72;;
12878;SDS011;20617;49.476;10.986;2023-03-21T11:38:09;5.40;;;3.83;;
12878;SDS011;20617;49.476;10.986;2023-03-21T11:40:29;5.40;;;3.50;;
12878;SDS011;20617;49.476;10.986;2023-03-21T11:42:39;8.38;;;4.72;;
12878;SDS011;20617;49.476;10.986;2023-03-21T11:44:49;7.28;;;3.80;;
12878;SDS011;20617;49.476;10.986;2023-03-21T11:47:03;5.50;;;3.50;;
12878;SDS011;20617;49.476;10.986;2023-03-21T11:49:09;5.03;;;2.90;;
12878;SDS011;20617;49.476;10.986;2023-03-21T11:51:18;4.90;;;3.45;;
12878;SDS011;20617;49.476;10.986;2023-03-21T11:53:34;6.40;;;4.15;;
12878;SDS011;20617;49.476;10.986;2023-03-21T11:55:49;4.70;;;3.75;;
12878;SDS011;20617;49.476;10.986;2023-03-21T11:58:15;7.10;;;3.40;;
12878;SDS011;20617;49.476;10.986;2023-03-21T12:00:38;3.63;;;2.85;;
12878;SDS011;20617;49.476;10.986;2023-03-21T12:02:55;5.10;;;3.05;;
12878;SDS011;20617;49.476;10.986;2023-03-21T12:05:15;4.57;;;3.13;;
12878;SDS011;20617;49.476;10.986;2023-03-21T12:07:26;5.18;;;3.33;;
12878;SDS011;20617;49.476;10.986;2023-03-21T12:09:43;4.20;;;2.40;;
12878;SDS011;20617;49.476;10.986;2023-03-21T12:11:57;3.72;;;2.50;;
12878;SDS011;20617;49.476;10.986;2023-03-21T12:14:11;5.50;;;3.50;;
12878;SDS011;20617;49.476;10.986;2023-03-21T12:16:30;5.63;;;3.90;;
12878;SDS011;20617;49.476;10.986;2023-03-21T12:18:47;7.35;;;3.92;;
12878;SDS011;20617;49.476;10.986;2023-03-21T12:21:05;5.20;;;3.33;;
12878;SDS011;20617;49.476;10.986;2023-03-21T12:23:30;5.60;;;3.50;;
12878;SDS011;20617;49.476;10.986;2023-03-21T12:25:46;3.83;;;3.00;;
12878;SDS011;20617;49.476;10.986;2023-03-21T12:28:00;4.00;;;2.63;;
12878;SDS011;20617;49.476;10.986;2023-03-21T12:30:25;6.55;;;3.35;;
12878;SDS011;20617;49.476;10.986;2023-03-21T12:32:43;5.05;;;3.58;;
12878;SDS011;20617;49.476;10.986;2023-03-21T12:35:02;6.53;;;2.70;;
12878;SDS011;20617;49.476;10.986;2023-03-21T12:37:26;4.93;;;3.15;;
12878;SDS011;20617;49.476;10.986;2023-03-21T12:39:38;5.53;;;2.95;;
12878;SDS011;20617;49.476;10.986;2023-03-21T12:41:44;5.20;;;2.72;;
12878;SDS011;20617;49.476;10.986;2023-03-21T12:43:59;3.78;;;2.78;;
12878;SDS011;20617;49.476;10.986;2023-03-21T12:46:09;3.60;;;2.85;;
12878;SDS011;20617;49.476;10.986;2023-03-21T12:48:25;3.95;;;2.90;;
12878;SDS011;20617;49.476;10.986;2023-03-21T12:50:37;4.43;;;2.42;;
12878;SDS011;20617;49.476;10.986;2023-03-21T12:52:43;5.07;;;3.05;;
12878;SDS011;20617;49.476;10.986;2023-03-21T12:54:54;5.50;;;3.05;;
12878;SDS011;20617;49.476;10.986;2023-03-21T12:57:03;6.10;;;2.70;;
12878;SDS011;20617;49.476;10.986;2023-03-21T12:59:14;4.07;;;2.70;;
12878;SDS011;20617;49.476;10.986;2023-03-21T13:01:26;5.00;;;2.67;;
12878;SDS011;20617;49.476;10.986;2023-03-21T13:03:36;4.00;;;2.35;;
12878;SDS011;20617;49.476;10.986;2023-03-21T13:05:47;5.30;;;2.63;;
12878;SDS011;20617;49.476;10.986;2023-03-21T13:07:58;3.10;;;2.13;;
12878;SDS011;20617;49.476;10.986;2023-03-21T13:10:11;3.33;;;2.20;;
12878;SDS011;20617;49.476;10.986;2023-03-21T13:12:24;5.57;;;2.28;;
12878;SDS011;20617;49.476;10.986;2023-03-21T13:14:41;2.85;;;1.80;;
12878;SDS011;20617;49.476;10.986;2023-03-21T13:16:57;4.32;;;2.30;;
12878;SDS011;20617;49.476;10.986;2023-03-21T13:19:10;2.92;;;2.08;;
12878;SDS011;20617;49.476;10.986;2023-03-21T13:21:25;5.43;;;2.40;;
12878;SDS011;20617;49.476;10.986;2023-03-21T13:23:38;4.03;;;2.53;;
12878;SDS011;20617;49.476;10.986;2023-03-21T13:25:44;3.17;;;2.00;;